createdAt,value
2022-12-16T00:02:05.092Z,36.40
2022-12-16T00:07:06.839Z,37.13
2022-12-16T00:12:08.525Z,37.87
2022-12-16T00:17:10.300Z,32.53
2022-12-16T00:22:11.989Z,36.80
2022-12-16T00:27:13.716Z,36.67
2022-12-16T00:32:15.429Z,34.93
2022-12-16T00:37:17.135Z,34.13
2022-12-16T00:42:18.833Z,36.93
2022-12-16T00:47:20.469Z,33.03
2022-12-16T00:52:22.487Z,35.33
2022-12-16T00:57:24.163Z,34.37
2022-12-16T01:02:25.983Z,33.67
2022-12-16T01:07:27.772Z,35.43
2022-12-16T01:12:29.614Z,36.67
2022-12-16T01:17:31.405Z,31.80
2022-12-16T01:22:34.834Z,40.27
2022-12-16T01:27:36.519Z,37.97
2022-12-16T01:32:38.297Z,33.43
2022-12-16T01:37:40.108Z,34.40
2022-12-16T01:42:41.804Z,32.93
2022-12-16T01:47:43.759Z,33.33
2022-12-16T01:52:53.590Z,40.17
2022-12-16T01:58:02.824Z,36.40
2022-12-16T02:03:05.489Z,36.43
2022-12-16T02:08:10.230Z,43.10
2022-12-16T02:13:48.847Z,38.17
2022-12-16T02:19:28.025Z,40.80
2022-12-16T02:25:08.326Z,46.73
2022-12-16T02:30:44.104Z,42.63
2022-12-16T02:36:08.076Z,48.17
2022-12-16T02:41:22.599Z,42.20
2022-12-16T02:46:27.509Z,41.60
2022-12-16T02:51:29.268Z,40.73
2022-12-16T02:56:45.903Z,43.33
2022-12-16T03:02:05.850Z,36.93
2022-12-16T03:07:12.241Z,38.77
2022-12-16T03:12:17.840Z,46.87
2022-12-16T03:17:22.783Z,47.57
2022-12-16T03:22:29.380Z,36.33
2022-12-16T03:27:40.224Z,39.17
2022-12-16T03:33:12.790Z,35.27
2022-12-16T03:38:16.434Z,42.00
2022-12-16T03:43:18.756Z,42.60
2022-12-16T03:48:25.034Z,40.17
2022-12-16T03:53:27.308Z,38.03
2022-12-16T03:58:28.995Z,35.13
2022-12-16T04:03:31.249Z,41.60
2022-12-16T04:08:33.229Z,35.67
2022-12-16T04:13:53.388Z,39.23
2022-12-16T04:19:13.857Z,42.07
2022-12-16T04:24:19.614Z,36.33
2022-12-16T04:29:21.322Z,41.03
2022-12-16T04:34:26.375Z,40.20
2022-12-16T04:39:46.612Z,41.20
2022-12-16T04:45:06.497Z,34.27
2022-12-16T04:50:27.100Z,44.23
2022-12-16T04:55:47.343Z,38.67
2022-12-16T05:01:08.153Z,37.77
2022-12-16T05:06:28.373Z,45.37
2022-12-16T05:11:48.891Z,42.10
2022-12-16T05:17:09.466Z,35.37
2022-12-16T05:22:30.043Z,40.00
2022-12-16T05:27:50.053Z,38.30
2022-12-16T05:33:10.463Z,42.40
2022-12-16T05:38:30.547Z,36.53
2022-12-16T05:43:50.933Z,41.03
2022-12-16T05:49:11.099Z,46.53
2022-12-16T05:54:31.628Z,38.07
2022-12-16T05:59:51.989Z,38.50
2022-12-16T06:05:12.730Z,44.37
2022-12-16T06:10:33.265Z,39.13
2022-12-16T06:15:53.825Z,42.67
2022-12-16T06:21:14.110Z,42.10
2022-12-16T06:26:34.686Z,42.80
2022-12-16T06:31:54.900Z,40.97
2022-12-16T06:37:15.197Z,40.60
2022-12-16T06:42:35.498Z,38.33
2022-12-16T06:47:57.725Z,40.43
2022-12-16T06:53:18.013Z,45.97
2022-12-16T06:58:38.108Z,39.60
2022-12-16T07:03:58.361Z,37.83
2022-12-16T07:09:18.506Z,39.70
2022-12-16T07:14:38.857Z,35.90
2022-12-16T07:19:59.228Z,30.37
2022-12-16T07:25:19.578Z,35.80
2022-12-16T07:30:39.769Z,31.43
2022-12-16T07:36:01.967Z,31.90
2022-12-16T07:41:22.497Z,34.40
2022-12-16T07:46:42.968Z,36.03
2022-12-16T07:52:03.201Z,37.67
2022-12-16T07:57:23.584Z,35.27
2022-12-16T08:02:43.934Z,33.10
2022-12-16T08:08:04.429Z,33.87
2022-12-16T08:13:26.097Z,41.40
2022-12-16T08:18:46.536Z,37.90
2022-12-16T08:24:07.043Z,35.33
2022-12-16T08:29:43.673Z,37.30
2022-12-16T08:35:04.530Z,37.83
2022-12-16T08:40:35.197Z,32.67
2022-12-16T08:45:57.164Z,36.37
2022-12-16T08:51:21.221Z,42.00
2022-12-16T08:56:41.441Z,33.70
2022-12-16T09:02:01.703Z,28.93
2022-12-16T09:07:22.179Z,39.13
2022-12-16T09:12:42.568Z,37.83
2022-12-16T09:18:02.770Z,41.60
2022-12-16T09:23:23.678Z,38.70
2022-12-16T09:28:44.194Z,43.33
2022-12-16T09:34:04.685Z,34.57
2022-12-16T09:39:24.998Z,40.33
2022-12-16T09:45:01.440Z,36.40
2022-12-16T09:50:21.931Z,41.53
2022-12-16T09:55:50.884Z,47.53
2022-12-16T10:01:11.977Z,38.43
2022-12-16T10:06:53.372Z,45.80
2022-12-16T10:12:40.195Z,42.07
2022-12-16T10:18:05.049Z,47.63
2022-12-16T10:23:40.282Z,44.20
2022-12-16T10:29:03.607Z,47.17
2022-12-16T10:34:36.767Z,45.07
2022-12-16T10:40:20.887Z,48.20
2022-12-16T10:45:48.866Z,46.60
2022-12-16T10:51:09.232Z,42.87
2022-12-16T10:56:35.514Z,48.03
2022-12-16T11:01:56.023Z,46.27
2022-12-16T11:07:27.081Z,45.03
2022-12-16T11:12:49.611Z,43.50
2022-12-16T11:18:27.321Z,53.40
2022-12-16T11:24:04.303Z,50.37
2022-12-16T11:29:33.148Z,57.73
2022-12-16T11:34:54.021Z,56.30
2022-12-16T11:40:14.588Z,58.27
2022-12-16T11:45:38.275Z,63.77
2022-12-16T11:51:13.032Z,60.67
2022-12-16T11:56:56.931Z,55.73
2022-12-16T12:02:23.217Z,56.90
2022-12-16T12:07:48.050Z,63.20
2022-12-16T12:13:46.873Z,52.90
2022-12-16T12:19:20.627Z,58.97
2022-12-16T12:25:05.691Z,60.50
2022-12-16T12:30:31.553Z,61.17
2022-12-16T12:36:01.927Z,69.37
2022-12-16T12:41:37.160Z,62.60
2022-12-16T12:47:07.743Z,64.00
2022-12-16T12:52:38.393Z,66.55
2022-12-16T12:58:00.834Z,57.67
2022-12-16T13:03:52.075Z,56.20
2022-12-16T13:09:15.034Z,67.07
2022-12-16T13:14:50.319Z,65.03
2022-12-16T13:20:13.022Z,61.83
2022-12-16T13:25:56.827Z,68.73
2022-12-16T13:31:25.658Z,71.13
2022-12-16T13:36:53.206Z,63.70
2022-12-16T13:42:18.657Z,67.70
2022-12-16T13:47:58.977Z,77.00
2022-12-16T13:53:21.701Z,74.43
2022-12-16T13:59:00.143Z,73.87
2022-12-16T14:04:20.820Z,86.30
2022-12-16T14:09:58.040Z,85.07
2022-12-16T14:15:58.747Z,82.97
2022-12-16T14:21:21.727Z,74.53
2022-12-16T14:26:42.739Z,66.00
2022-12-16T14:32:03.247Z,63.07
2022-12-16T14:37:53.733Z,63.17
2022-12-16T14:43:14.007Z,60.00
2022-12-16T14:48:49.194Z,66.80
2022-12-16T14:54:30.063Z,69.17
2022-12-16T14:59:57.289Z,66.13
2022-12-16T15:05:18.620Z,65.17
2022-12-16T15:10:42.357Z,62.10
2022-12-16T15:16:07.121Z,59.40
2022-12-16T15:21:27.808Z,57.13
2022-12-16T15:26:52.743Z,55.60
2022-12-16T15:32:12.913Z,58.53
2022-12-16T15:37:34.684Z,57.63
2022-12-16T15:42:55.101Z,61.97
2022-12-16T15:48:17.111Z,63.10
2022-12-16T15:53:48.550Z,63.13
2022-12-16T15:59:09.073Z,56.63
2022-12-16T16:04:44.981Z,62.53
2022-12-16T16:10:05.425Z,57.07
2022-12-16T16:15:27.953Z,60.63
2022-12-16T16:20:48.402Z,54.80
2022-12-16T16:26:08.620Z,67.00
2022-12-16T16:31:29.466Z,62.07
2022-12-16T16:36:49.628Z,56.77
2022-12-16T16:42:10.194Z,58.47
2022-12-16T16:47:35.555Z,56.93
2022-12-16T16:52:56.144Z,56.30
2022-12-16T16:58:16.265Z,62.23
2022-12-16T17:03:37.493Z,60.80
2022-12-16T17:08:59.244Z,64.03
2022-12-16T17:14:19.597Z,65.10
2022-12-16T17:19:40.062Z,68.00
2022-12-16T17:25:00.397Z,65.30
2022-12-16T17:30:20.828Z,72.03
2022-12-16T17:35:40.901Z,75.40
2022-12-16T17:41:01.045Z,65.33
2022-12-16T17:46:26.261Z,61.87
2022-12-16T17:51:46.561Z,61.67
2022-12-16T17:57:06.796Z,59.83
2022-12-16T18:02:31.082Z,56.22
2022-12-16T18:07:51.598Z,88.83
2022-12-16T18:13:13.603Z,88.57
2022-12-16T18:18:34.086Z,88.55
2022-12-16T18:23:54.505Z,65.43
2022-12-16T18:29:14.924Z,52.45
2022-12-16T18:34:35.207Z,57.03
2022-12-16T18:39:55.767Z,52.70
2022-12-16T18:45:16.025Z,55.25
2022-12-16T18:50:38.230Z,53.22
2022-12-16T18:55:58.517Z,55.88
2022-12-16T19:01:27.704Z,54.80
2022-12-16T19:06:48.028Z,58.45
2022-12-16T19:12:08.134Z,65.82
2022-12-16T19:17:28.100Z,55.47
2022-12-16T19:22:48.527Z,61.90
2022-12-16T19:28:08.563Z,58.22
2022-12-16T19:33:29.903Z,63.40
2022-12-16T19:38:50.242Z,49.03
2022-12-16T19:44:10.733Z,54.63
2022-12-16T19:49:30.865Z,57.22
2022-12-16T19:54:51.771Z,67.10
2022-12-16T20:00:12.199Z,64.40
2022-12-16T20:05:32.838Z,64.40
2022-12-16T20:16:34.748Z,73.67
2022-12-16T20:21:56.566Z,64.53
2022-12-16T20:27:17.787Z,60.70
2022-12-16T20:32:38.120Z,69.70
2022-12-16T20:37:58.268Z,62.40
2022-12-16T20:43:18.707Z,63.33
2022-12-16T20:48:39.049Z,65.87
2022-12-16T20:54:00.130Z,69.00
2022-12-16T20:59:31.261Z,69.43
2022-12-16T21:04:51.771Z,69.67
2022-12-16T21:10:12.201Z,68.37
2022-12-16T21:15:32.580Z,69.22
2022-12-16T21:20:53.043Z,71.50
2022-12-16T21:26:19.535Z,63.77
2022-12-16T21:31:39.961Z,67.87
2022-12-16T21:37:00.426Z,68.60
2022-12-16T21:42:20.644Z,73.38
2022-12-16T21:47:40.994Z,71.83
2022-12-16T21:53:01.524Z,66.37
2022-12-16T21:58:21.925Z,60.30
2022-12-16T22:03:43.778Z,65.80
2022-12-16T22:09:04.184Z,70.30
2022-12-16T22:14:24.624Z,65.47
2022-12-16T22:19:45.078Z,66.28
2022-12-16T22:25:10.962Z,60.50
2022-12-16T22:30:34.519Z,59.60
2022-12-16T22:35:55.390Z,61.53
2022-12-16T22:41:17.457Z,56.75
2022-12-16T22:46:37.824Z,61.73
2022-12-16T22:51:58.339Z,61.03
2022-12-16T22:57:18.541Z,59.38
2022-12-16T23:02:39.029Z,56.40
2022-12-16T23:07:59.405Z,61.63
2022-12-16T23:13:19.939Z,51.50
2022-12-16T23:18:40.446Z,63.08
2022-12-16T23:24:00.705Z,60.05
2022-12-16T23:29:21.417Z,59.05
2022-12-16T23:34:45.752Z,57.00
2022-12-16T23:40:06.489Z,57.53
2022-12-16T23:45:26.987Z,62.10
2022-12-16T23:50:47.271Z,59.95
2022-12-16T23:56:07.405Z,61.60
